sensor_id;sensor_type;location;lat;lon;timestamp;temperature;humidity
63051;SHT30;49136;47.416;19.402;2023-01-08T00:01:28;5.49;99.99
63051;SHT30;49136;47.416;19.402;2023-01-08T00:03:54;5.56;99.99
63051;SHT30;49136;47.416;19.402;2023-01-08T00:06:19;5.50;99.99
63051;SHT30;49136;47.416;19.402;2023-01-08T00:08:49;5.52;99.99
63051;SHT30;49136;47.416;19.402;2023-01-08T00:11:21;5.50;99.99
63051;SHT30;49136;47.416;19.402;2023-01-08T00:13:46;5.53;99.99
63051;SHT30;49136;47.416;19.402;2023-01-08T00:16:14;5.53;99.99
63051;SHT30;49136;47.416;19.402;2023-01-08T00:18:41;5.49;99.99
63051;SHT30;49136;47.416;19.402;2023-01-08T00:21:10;5.53;99.99
63051;SHT30;49136;47.416;19.402;2023-01-08T00:23:36;5.52;99.99
63051;SHT30;49136;47.416;19.402;2023-01-08T00:26:07;5.50;99.99
63051;SHT30;49136;47.416;19.402;2023-01-08T00:28:34;5.56;99.99
63051;SHT30;49136;47.416;19.402;2023-01-08T00:31:09;5.54;99.99
63051;SHT30;49136;47.416;19.402;2023-01-08T00:33:36;5.53;99.99
63051;SHT30;49136;47.416;19.402;2023-01-08T00:36:11;5.53;99.99
63051;SHT30;49136;47.416;19.402;2023-01-08T00:38:37;5.52;99.99
63051;SHT30;49136;47.416;19.402;2023-01-08T00:41:03;5.49;99.99
63051;SHT30;49136;47.416;19.402;2023-01-08T00:43:29;5.50;99.99
63051;SHT30;49136;47.416;19.402;2023-01-08T00:45:55;5.53;99.99
63051;SHT30;49136;47.416;19.402;2023-01-08T00:48:20;5.50;99.99
63051;SHT30;49136;47.416;19.402;2023-01-08T00:50:54;5.49;99.99
63051;SHT30;49136;47.416;19.402;2023-01-08T00:53:20;5.49;99.99
63051;SHT30;49136;47.416;19.402;2023-01-08T00:55:46;5.46;99.99
63051;SHT30;49136;47.416;19.402;2023-01-08T00:58:12;5.47;99.99
63051;SHT30;49136;47.416;19.402;2023-01-08T01:00:38;5.47;99.99
63051;SHT30;49136;47.416;19.402;2023-01-08T01:03:03;5.45;99.99
63051;SHT30;49136;47.416;19.402;2023-01-08T01:05:29;5.45;99.99
63051;SHT30;49136;47.416;19.402;2023-01-08T01:07:54;5.45;99.99
63051;SHT30;49136;47.416;19.402;2023-01-08T01:10:38;5.46;99.99
63051;SHT30;49136;47.416;19.402;2023-01-08T01:13:04;5.47;99.99
63051;SHT30;49136;47.416;19.402;2023-01-08T01:15:29;5.50;99.99
63051;SHT30;49136;47.416;19.402;2023-01-08T01:17:55;5.49;99.99
63051;SHT30;49136;47.416;19.402;2023-01-08T01:20:24;5.53;99.99
63051;SHT30;49136;47.416;19.402;2023-01-08T01:22:50;5.52;99.99
63051;SHT30;49136;47.416;19.402;2023-01-08T01:25:16;5.54;99.99
63051;SHT30;49136;47.416;19.402;2023-01-08T01:27:41;5.47;99.99
63051;SHT30;49136;47.416;19.402;2023-01-08T01:30:27;5.49;99.99
63051;SHT30;49136;47.416;19.402;2023-01-08T01:32:53;5.49;99.99
63051;SHT30;49136;47.416;19.402;2023-01-08T01:35:19;5.47;99.99
63051;SHT30;49136;47.416;19.402;2023-01-08T01:37:44;5.50;99.99
63051;SHT30;49136;47.416;19.402;2023-01-08T01:40:23;5.47;99.99
63051;SHT30;49136;47.416;19.402;2023-01-08T01:42:48;5.43;99.99
63051;SHT30;49136;47.416;19.402;2023-01-08T01:45:23;5.43;99.99
63051;SHT30;49136;47.416;19.402;2023-01-08T01:50:43;5.46;99.99
63051;SHT30;49136;47.416;19.402;2023-01-08T01:55:41;5.47;99.99
63051;SHT30;49136;47.416;19.402;2023-01-08T02:00:43;5.45;99.99
63051;SHT30;49136;47.416;19.402;2023-01-08T02:03:10;5.42;99.99
63051;SHT30;49136;47.416;19.402;2023-01-08T02:05:59;5.39;99.99
63051;SHT30;49136;47.416;19.402;2023-01-08T02:14:11;5.35;99.99
63051;SHT30;49136;47.416;19.402;2023-01-08T02:16:52;5.40;99.99
63051;SHT30;49136;47.416;19.402;2023-01-08T02:24:55;5.39;99.99
63051;SHT30;49136;47.416;19.402;2023-01-08T02:27:28;5.43;99.99
63051;SHT30;49136;47.416;19.402;2023-01-08T02:29:55;5.36;99.99
63051;SHT30;49136;47.416;19.402;2023-01-08T02:32:26;5.38;99.99
63051;SHT30;49136;47.416;19.402;2023-01-08T02:34:51;5.35;99.99
63051;SHT30;49136;47.416;19.402;2023-01-08T02:37:17;5.34;99.99
63051;SHT30;49136;47.416;19.402;2023-01-08T02:40:05;5.32;99.99
63051;SHT30;49136;47.416;19.402;2023-01-08T02:45:33;5.29;99.99
63051;SHT30;49136;47.416;19.402;2023-01-08T02:48:01;5.29;99.99
63051;SHT30;49136;47.416;19.402;2023-01-08T02:53:32;5.28;99.99
63051;SHT30;49136;47.416;19.402;2023-01-08T02:56:02;5.24;99.99
63051;SHT30;49136;47.416;19.402;2023-01-08T02:58:29;5.22;99.99
63051;SHT30;49136;47.416;19.402;2023-01-08T03:01:03;5.22;99.99
63051;SHT30;49136;47.416;19.402;2023-01-08T03:03:31;5.27;99.99
63051;SHT30;49136;47.416;19.402;2023-01-08T03:06:09;5.22;99.99
63051;SHT30;49136;47.416;19.402;2023-01-08T03:08:39;5.21;99.99
63051;SHT30;49136;47.416;19.402;2023-01-08T03:11:13;5.21;99.99
63051;SHT30;49136;47.416;19.402;2023-01-08T03:13:47;5.24;99.99
63051;SHT30;49136;47.416;19.402;2023-01-08T03:16:17;5.22;99.99
63051;SHT30;49136;47.416;19.402;2023-01-08T03:18:48;5.22;99.99
63051;SHT30;49136;47.416;19.402;2023-01-08T03:21:17;5.25;99.99
63051;SHT30;49136;47.416;19.402;2023-01-08T03:23:45;5.21;99.99
63051;SHT30;49136;47.416;19.402;2023-01-08T03:26:14;5.19;99.99
63051;SHT30;49136;47.416;19.402;2023-01-08T03:28:45;5.15;99.99
63051;SHT30;49136;47.416;19.402;2023-01-08T03:31:18;5.15;99.99
63051;SHT30;49136;47.416;19.402;2023-01-08T03:33:45;5.12;99.99
63051;SHT30;49136;47.416;19.402;2023-01-08T03:36:17;5.19;99.99
63051;SHT30;49136;47.416;19.402;2023-01-08T03:38:49;5.15;99.99
63051;SHT30;49136;47.416;19.402;2023-01-08T03:44:38;5.15;99.99
63051;SHT30;49136;47.416;19.402;2023-01-08T03:47:04;5.08;99.99
63051;SHT30;49136;47.416;19.402;2023-01-08T03:49:31;5.14;99.99
63051;SHT30;49136;47.416;19.402;2023-01-08T03:52:01;5.10;99.99
63051;SHT30;49136;47.416;19.402;2023-01-08T03:54:32;5.11;99.99
63051;SHT30;49136;47.416;19.402;2023-01-08T03:56:58;5.10;99.99
63051;SHT30;49136;47.416;19.402;2023-01-08T03:59:23;5.05;99.99
63051;SHT30;49136;47.416;19.402;2023-01-08T04:01:56;5.10;99.99
63051;SHT30;49136;47.416;19.402;2023-01-08T04:04:21;5.05;99.99
63051;SHT30;49136;47.416;19.402;2023-01-08T04:06:47;5.04;99.99
63051;SHT30;49136;47.416;19.402;2023-01-08T04:09:12;5.01;99.99
63051;SHT30;49136;47.416;19.402;2023-01-08T04:11:37;5.00;99.99
63051;SHT30;49136;47.416;19.402;2023-01-08T04:14:17;5.01;99.99
63051;SHT30;49136;47.416;19.402;2023-01-08T04:16:43;4.98;99.99
63051;SHT30;49136;47.416;19.402;2023-01-08T04:19:10;4.90;99.99
63051;SHT30;49136;47.416;19.402;2023-01-08T04:21:50;4.91;99.99
63051;SHT30;49136;47.416;19.402;2023-01-08T04:24:16;4.87;99.99
63051;SHT30;49136;47.416;19.402;2023-01-08T04:26:41;4.88;99.99
63051;SHT30;49136;47.416;19.402;2023-01-08T04:29:07;4.83;99.99
63051;SHT30;49136;47.416;19.402;2023-01-08T04:31:32;4.83;99.99
63051;SHT30;49136;47.416;19.402;2023-01-08T04:34:11;4.87;99.99
63051;SHT30;49136;47.416;19.402;2023-01-08T04:36:37;4.84;99.99
63051;SHT30;49136;47.416;19.402;2023-01-08T04:39:03;4.84;99.99
63051;SHT30;49136;47.416;19.402;2023-01-08T04:41:31;4.79;99.99
63051;SHT30;49136;47.416;19.402;2023-01-08T04:43:57;4.81;99.99
63051;SHT30;49136;47.416;19.402;2023-01-08T04:46:22;4.79;99.99
63051;SHT30;49136;47.416;19.402;2023-01-08T04:48:48;4.79;99.99
63051;SHT30;49136;47.416;19.402;2023-01-08T04:51:13;4.79;99.99
63051;SHT30;49136;47.416;19.402;2023-01-08T04:53:56;4.76;99.99
63051;SHT30;49136;47.416;19.402;2023-01-08T04:56:21;4.76;99.99
63051;SHT30;49136;47.416;19.402;2023-01-08T04:58:47;4.70;99.99
63051;SHT30;49136;47.416;19.402;2023-01-08T05:01:18;4.70;99.99
63051;SHT30;49136;47.416;19.402;2023-01-08T05:06:24;4.72;99.99
63051;SHT30;49136;47.416;19.402;2023-01-08T05:08:50;4.72;99.99
63051;SHT30;49136;47.416;19.402;2023-01-08T05:11:15;4.70;99.99
63051;SHT30;49136;47.416;19.402;2023-01-08T05:13:50;4.75;99.99
63051;SHT30;49136;47.416;19.402;2023-01-08T05:16:16;4.70;99.99
63051;SHT30;49136;47.416;19.402;2023-01-08T05:18:43;4.69;99.99
63051;SHT30;49136;47.416;19.402;2023-01-08T05:21:08;4.73;99.99
63051;SHT30;49136;47.416;19.402;2023-01-08T05:23:46;4.68;99.99
63051;SHT30;49136;47.416;19.402;2023-01-08T05:26:15;4.68;99.99
63051;SHT30;49136;47.416;19.402;2023-01-08T05:28:41;4.63;99.99
63051;SHT30;49136;47.416;19.402;2023-01-08T05:31:06;4.68;99.99
63051;SHT30;49136;47.416;19.402;2023-01-08T05:33:45;4.68;99.99
63051;SHT30;49136;47.416;19.402;2023-01-08T05:36:11;4.63;99.99
63051;SHT30;49136;47.416;19.402;2023-01-08T05:38:37;4.66;99.99
63051;SHT30;49136;47.416;19.402;2023-01-08T05:41:03;4.66;99.99
63051;SHT30;49136;47.416;19.402;2023-01-08T05:43:39;4.66;99.99
63051;SHT30;49136;47.416;19.402;2023-01-08T05:46:04;4.63;99.99
63051;SHT30;49136;47.416;19.402;2023-01-08T05:48:32;4.63;99.99
63051;SHT30;49136;47.416;19.402;2023-01-08T05:50:58;4.62;99.99
63051;SHT30;49136;47.416;19.402;2023-01-08T05:53:29;4.59;99.99
63051;SHT30;49136;47.416;19.402;2023-01-08T05:56:06;4.58;99.99
63051;SHT30;49136;47.416;19.402;2023-01-08T05:58:32;4.59;99.99
63051;SHT30;49136;47.416;19.402;2023-01-08T06:01:04;4.63;99.99
63051;SHT30;49136;47.416;19.402;2023-01-08T06:03:41;4.66;99.99
63051;SHT30;49136;47.416;19.402;2023-01-08T06:06:09;4.58;99.99
63051;SHT30;49136;47.416;19.402;2023-01-08T06:08:35;4.58;99.99
63051;SHT30;49136;47.416;19.402;2023-01-08T06:11:02;4.58;99.99
63051;SHT30;49136;47.416;19.402;2023-01-08T06:13:52;4.59;99.99
63051;SHT30;49136;47.416;19.402;2023-01-08T06:16:18;4.58;99.99
63051;SHT30;49136;47.416;19.402;2023-01-08T06:18:45;4.56;99.99
63051;SHT30;49136;47.416;19.402;2023-01-08T06:21:11;4.56;99.99
63051;SHT30;49136;47.416;19.402;2023-01-08T06:23:39;4.52;99.99
63051;SHT30;49136;47.416;19.402;2023-01-08T06:26:04;4.52;99.99
63051;SHT30;49136;47.416;19.402;2023-01-08T06:28:30;4.53;99.99
63051;SHT30;49136;47.416;19.402;2023-01-08T06:30:57;4.52;99.99
63051;SHT30;49136;47.416;19.402;2023-01-08T06:33:36;4.56;99.99
63051;SHT30;49136;47.416;19.402;2023-01-08T06:36:03;4.53;99.99
63051;SHT30;49136;47.416;19.402;2023-01-08T06:38:30;4.53;99.99
63051;SHT30;49136;47.416;19.402;2023-01-08T06:40:56;4.58;99.99
63051;SHT30;49136;47.416;19.402;2023-01-08T06:43:23;4.59;99.99
63051;SHT30;49136;47.416;19.402;2023-01-08T06:45:53;4.60;99.99
63051;SHT30;49136;47.416;19.402;2023-01-08T06:48:19;4.53;99.99
63051;SHT30;49136;47.416;19.402;2023-01-08T06:50:44;4.53;99.99
63051;SHT30;49136;47.416;19.402;2023-01-08T06:56:22;4.55;99.99
63051;SHT30;49136;47.416;19.402;2023-01-08T06:58:48;4.53;99.99
63051;SHT30;49136;47.416;19.402;2023-01-08T07:01:14;4.55;99.99
63051;SHT30;49136;47.416;19.402;2023-01-08T07:03:58;4.51;99.99
63051;SHT30;49136;47.416;19.402;2023-01-08T07:06:24;4.55;99.99
63051;SHT30;49136;47.416;19.402;2023-01-08T07:08:49;4.51;99.99
63051;SHT30;49136;47.416;19.402;2023-01-08T07:11:15;4.52;99.99
63051;SHT30;49136;47.416;19.402;2023-01-08T07:13:41;4.53;99.99
63051;SHT30;49136;47.416;19.402;2023-01-08T07:16:10;4.55;99.99
63051;SHT30;49136;47.416;19.402;2023-01-08T07:18:37;4.58;99.99
63051;SHT30;49136;47.416;19.402;2023-01-08T07:21:03;4.53;99.99
63051;SHT30;49136;47.416;19.402;2023-01-08T07:23:29;4.60;99.99
63051;SHT30;49136;47.416;19.402;2023-01-08T07:25:59;4.59;99.99
63051;SHT30;49136;47.416;19.402;2023-01-08T07:28:24;4.62;99.99
63051;SHT30;49136;47.416;19.402;2023-01-08T07:30:49;4.60;99.99
63051;SHT30;49136;47.416;19.402;2023-01-08T07:33:38;4.55;99.99
63051;SHT30;49136;47.416;19.402;2023-01-08T07:36:04;4.52;99.99
63051;SHT30;49136;47.416;19.402;2023-01-08T07:38:30;4.49;99.99
63051;SHT30;49136;47.416;19.402;2023-01-08T07:40:57;4.48;99.99
63051;SHT30;49136;47.416;19.402;2023-01-08T07:43:25;4.52;99.99
63051;SHT30;49136;47.416;19.402;2023-01-08T07:45:55;4.55;99.99
63051;SHT30;49136;47.416;19.402;2023-01-08T07:48:21;4.62;99.99
63051;SHT30;49136;47.416;19.402;2023-01-08T07:50:46;4.62;99.99
63051;SHT30;49136;47.416;19.402;2023-01-08T07:53:32;4.58;99.99
63051;SHT30;49136;47.416;19.402;2023-01-08T07:55:59;4.55;99.99
63051;SHT30;49136;47.416;19.402;2023-01-08T07:58:25;4.58;99.99
63051;SHT30;49136;47.416;19.402;2023-01-08T08:00:51;4.60;99.99
63051;SHT30;49136;47.416;19.402;2023-01-08T08:03:20;4.65;99.99
63051;SHT30;49136;47.416;19.402;2023-01-08T08:05:46;4.63;99.99
63051;SHT30;49136;47.416;19.402;2023-01-08T08:08:12;4.62;99.99
63051;SHT30;49136;47.416;19.402;2023-01-08T08:10:38;4.69;99.99
63051;SHT30;49136;47.416;19.402;2023-01-08T08:13:08;4.62;99.99
63051;SHT30;49136;47.416;19.402;2023-01-08T08:15:34;4.65;99.99
63051;SHT30;49136;47.416;19.402;2023-01-08T08:18:01;4.68;99.99
63051;SHT30;49136;47.416;19.402;2023-01-08T08:20:26;4.69;99.99
63051;SHT30;49136;47.416;19.402;2023-01-08T08:23:16;4.75;99.99
63051;SHT30;49136;47.416;19.402;2023-01-08T08:25:42;4.81;99.99
63051;SHT30;49136;47.416;19.402;2023-01-08T08:28:09;4.86;99.99
63051;SHT30;49136;47.416;19.402;2023-01-08T08:30:35;4.81;99.99
63051;SHT30;49136;47.416;19.402;2023-01-08T08:33:29;4.86;99.99
63051;SHT30;49136;47.416;19.402;2023-01-08T08:35:54;4.84;99.99
63051;SHT30;49136;47.416;19.402;2023-01-08T08:38:20;4.76;99.99
63051;SHT30;49136;47.416;19.402;2023-01-08T08:40:45;4.70;99.99
63051;SHT30;49136;47.416;19.402;2023-01-08T08:43:13;4.70;99.99
63051;SHT30;49136;47.416;19.402;2023-01-08T08:45:39;4.72;99.99
63051;SHT30;49136;47.416;19.402;2023-01-08T08:48:05;4.77;99.99
63051;SHT30;49136;47.416;19.402;2023-01-08T08:50:31;4.77;99.99
63051;SHT30;49136;47.416;19.402;2023-01-08T08:53:01;4.80;99.99
63051;SHT30;49136;47.416;19.402;2023-01-08T08:55:37;4.81;99.99
63051;SHT30;49136;47.416;19.402;2023-01-08T08:58:05;4.91;99.99
63051;SHT30;49136;47.416;19.402;2023-01-08T09:00:30;4.97;99.99
63051;SHT30;49136;47.416;19.402;2023-01-08T09:02:56;5.01;99.99
63051;SHT30;49136;47.416;19.402;2023-01-08T09:05:21;5.11;99.99
63051;SHT30;49136;47.416;19.402;2023-01-08T09:07:47;5.11;99.99
63051;SHT30;49136;47.416;19.402;2023-01-08T09:10:12;5.10;99.99
63051;SHT30;49136;47.416;19.402;2023-01-08T09:12:38;5.18;99.99
63051;SHT30;49136;47.416;19.402;2023-01-08T09:15:07;5.27;99.99
63051;SHT30;49136;47.416;19.402;2023-01-08T09:17:32;5.29;99.99
63051;SHT30;49136;47.416;19.402;2023-01-08T09:19:59;5.28;99.99
63051;SHT30;49136;47.416;19.402;2023-01-08T09:22:24;5.43;99.99
63051;SHT30;49136;47.416;19.402;2023-01-08T09:25:01;5.47;99.99
63051;SHT30;49136;47.416;19.402;2023-01-08T09:27:26;5.60;99.99
63051;SHT30;49136;47.416;19.402;2023-01-08T09:29:52;5.52;99.99
63051;SHT30;49136;47.416;19.402;2023-01-08T09:32:19;5.54;99.99
63051;SHT30;49136;47.416;19.402;2023-01-08T09:35:00;5.54;99.99
63051;SHT30;49136;47.416;19.402;2023-01-08T09:37:26;5.45;99.99
63051;SHT30;49136;47.416;19.402;2023-01-08T09:39:54;5.57;99.99
63051;SHT30;49136;47.416;19.402;2023-01-08T09:42:22;5.62;99.99
63051;SHT30;49136;47.416;19.402;2023-01-08T09:44:53;5.66;99.99
63051;SHT30;49136;47.416;19.402;2023-01-08T09:49:49;5.93;99.99
63051;SHT30;49136;47.416;19.402;2023-01-08T09:52:16;5.84;99.87
63051;SHT30;49136;47.416;19.402;2023-01-08T09:54:41;5.95;99.97
63051;SHT30;49136;47.416;19.402;2023-01-08T09:57:16;5.97;99.49
63051;SHT30;49136;47.416;19.402;2023-01-08T09:59:43;5.99;99.55
63051;SHT30;49136;47.416;19.402;2023-01-08T10:02:23;6.14;99.51
63051;SHT30;49136;47.416;19.402;2023-01-08T10:04:58;6.01;99.13
63051;SHT30;49136;47.416;19.402;2023-01-08T10:07:26;6.16;99.16
63051;SHT30;49136;47.416;19.402;2023-01-08T10:09:53;5.94;99.11
63051;SHT30;49136;47.416;19.402;2023-01-08T10:12:30;6.26;99.50
63051;SHT30;49136;47.416;19.402;2023-01-08T10:15:01;6.41;98.55
63051;SHT30;49136;47.416;19.402;2023-01-08T10:17:29;6.73;97.91
63051;SHT30;49136;47.416;19.402;2023-01-08T10:19:59;6.91;97.30
63051;SHT30;49136;47.416;19.402;2023-01-08T10:22:27;7.15;96.82
63051;SHT30;49136;47.416;19.402;2023-01-08T10:25:04;7.12;96.70
63051;SHT30;49136;47.416;19.402;2023-01-08T10:27:29;7.47;96.45
63051;SHT30;49136;47.416;19.402;2023-01-08T10:30:03;7.69;96.15
63051;SHT30;49136;47.416;19.402;2023-01-08T10:32:31;7.67;94.88
63051;SHT30;49136;47.416;19.402;2023-01-08T10:35:05;7.62;94.67
63051;SHT30;49136;47.416;19.402;2023-01-08T10:37:37;7.82;95.31
63051;SHT30;49136;47.416;19.402;2023-01-08T10:40:05;8.02;94.53
63051;SHT30;49136;47.416;19.402;2023-01-08T10:42:34;7.85;94.05
63051;SHT30;49136;47.416;19.402;2023-01-08T10:45:05;7.96;94.59
63051;SHT30;49136;47.416;19.402;2023-01-08T10:47:32;7.87;94.98
63051;SHT30;49136;47.416;19.402;2023-01-08T10:50:02;8.02;94.93
63051;SHT30;49136;47.416;19.402;2023-01-08T10:52:33;8.03;94.39
63051;SHT30;49136;47.416;19.402;2023-01-08T10:55:25;8.19;94.75
63051;SHT30;49136;47.416;19.402;2023-01-08T10:58:03;8.38;94.14
63051;SHT30;49136;47.416;19.402;2023-01-08T11:00:31;8.72;93.36
63051;SHT30;49136;47.416;19.402;2023-01-08T11:03:03;8.93;92.25
63051;SHT30;49136;47.416;19.402;2023-01-08T11:05:44;9.07;92.67
63051;SHT30;49136;47.416;19.402;2023-01-08T11:08:16;9.05;92.26
63051;SHT30;49136;47.416;19.402;2023-01-08T11:10:52;8.94;92.56
63051;SHT30;49136;47.416;19.402;2023-01-08T11:13:18;8.87;92.64
63051;SHT30;49136;47.416;19.402;2023-01-08T11:16:15;9.07;92.22
63051;SHT30;49136;47.416;19.402;2023-01-08T11:18:46;8.93;92.91
63051;SHT30;49136;47.416;19.402;2023-01-08T11:21:21;8.97;92.87
63051;SHT30;49136;47.416;19.402;2023-01-08T11:23:58;9.10;93.10
63051;SHT30;49136;47.416;19.402;2023-01-08T11:26:43;9.24;91.58
63051;SHT30;49136;47.416;19.402;2023-01-08T11:29:23;9.59;91.65
63051;SHT30;49136;47.416;19.402;2023-01-08T11:32:06;9.83;90.41
63051;SHT30;49136;47.416;19.402;2023-01-08T11:39:44;10.05;89.87
63051;SHT30;49136;47.416;19.402;2023-01-08T12:08:32;10.53;87.43
63051;SHT30;49136;47.416;19.402;2023-01-08T12:11:09;10.50;86.81
63051;SHT30;49136;47.416;19.402;2023-01-08T12:13:54;10.52;88.02
63051;SHT30;49136;47.416;19.402;2023-01-08T12:34:26;10.92;87.32
63051;SHT30;49136;47.416;19.402;2023-01-08T12:37:13;10.87;88.23
63051;SHT30;49136;47.416;19.402;2023-01-08T12:39:49;10.80;88.00
63051;SHT30;49136;47.416;19.402;2023-01-08T12:42:18;10.74;87.98
63051;SHT30;49136;47.416;19.402;2023-01-08T12:45:04;10.74;88.67
63051;SHT30;49136;47.416;19.402;2023-01-08T12:47:34;10.70;88.73
63051;SHT30;49136;47.416;19.402;2023-01-08T13:04:20;10.64;87.79
63051;SHT30;49136;47.416;19.402;2023-01-08T13:10:00;10.53;88.58
63051;SHT30;49136;47.416;19.402;2023-01-08T13:12:39;10.46;88.12
63051;SHT30;49136;47.416;19.402;2023-01-08T13:18:07;10.35;88.85
63051;SHT30;49136;47.416;19.402;2023-01-08T13:20:39;10.35;89.03
63051;SHT30;49136;47.416;19.402;2023-01-08T13:23:05;10.31;89.54
63051;SHT30;49136;47.416;19.402;2023-01-08T13:25:57;10.22;89.58
63051;SHT30;49136;47.416;19.402;2023-01-08T13:30:49;10.19;89.37
63051;SHT30;49136;47.416;19.402;2023-01-08T13:42:19;10.15;88.87
63051;SHT30;49136;47.416;19.402;2023-01-08T13:44:50;10.15;88.65
63051;SHT30;49136;47.416;19.402;2023-01-08T13:47:35;10.15;88.98
63051;SHT30;49136;47.416;19.402;2023-01-08T13:50:19;10.08;89.35
63051;SHT30;49136;47.416;19.402;2023-01-08T13:53:04;10.05;89.19
63051;SHT30;49136;47.416;19.402;2023-01-08T13:55:42;10.07;89.37
63051;SHT30;49136;47.416;19.402;2023-01-08T13:58:24;10.01;89.88
63051;SHT30;49136;47.416;19.402;2023-01-08T14:00:52;9.97;89.80
63051;SHT30;49136;47.416;19.402;2023-01-08T14:06:25;9.87;90.62
63051;SHT30;49136;47.416;19.402;2023-01-08T14:08:59;9.81;90.93
63051;SHT30;49136;47.416;19.402;2023-01-08T14:11:40;9.80;90.83
63051;SHT30;49136;47.416;19.402;2023-01-08T14:14:12;9.74;90.96
63051;SHT30;49136;47.416;19.402;2023-01-08T14:16:51;9.69;91.23
63051;SHT30;49136;47.416;19.402;2023-01-08T14:19:20;9.69;90.98
63051;SHT30;49136;47.416;19.402;2023-01-08T14:21:48;9.64;91.50
63051;SHT30;49136;47.416;19.402;2023-01-08T14:24:15;9.62;91.49
63051;SHT30;49136;47.416;19.402;2023-01-08T14:26:41;9.57;91.82
63051;SHT30;49136;47.416;19.402;2023-01-08T14:29:13;9.64;91.32
63051;SHT30;49136;47.416;19.402;2023-01-08T14:31:48;9.63;91.32
63051;SHT30;49136;47.416;19.402;2023-01-08T14:34:15;9.64;91.31
63051;SHT30;49136;47.416;19.402;2023-01-08T14:36:46;9.62;91.37
63051;SHT30;49136;47.416;19.402;2023-01-08T14:39:32;9.57;91.58
63051;SHT30;49136;47.416;19.402;2023-01-08T14:42:32;9.49;91.75
63051;SHT30;49136;47.416;19.402;2023-01-08T14:45:23;9.53;91.42
63051;SHT30;49136;47.416;19.402;2023-01-08T14:48:08;9.53;91.64
63051;SHT30;49136;47.416;19.402;2023-01-08T14:51:04;9.59;91.26
63051;SHT30;49136;47.416;19.402;2023-01-08T14:53:40;9.52;91.68
63051;SHT30;49136;47.416;19.402;2023-01-08T14:56:12;9.57;91.54
63051;SHT30;49136;47.416;19.402;2023-01-08T14:58:42;9.59;91.47
63051;SHT30;49136;47.416;19.402;2023-01-08T15:01:19;9.59;91.38
63051;SHT30;49136;47.416;19.402;2023-01-08T15:03:47;9.57;91.39
63051;SHT30;49136;47.416;19.402;2023-01-08T15:06:32;9.52;91.80
63051;SHT30;49136;47.416;19.402;2023-01-08T15:08:58;9.52;91.74
63051;SHT30;49136;47.416;19.402;2023-01-08T15:11:29;9.48;91.79
63051;SHT30;49136;47.416;19.402;2023-01-08T15:13:55;9.50;91.46
63051;SHT30;49136;47.416;19.402;2023-01-08T15:16:52;9.48;91.84
63051;SHT30;49136;47.416;19.402;2023-01-08T15:19:27;9.53;91.43
63051;SHT30;49136;47.416;19.402;2023-01-08T15:21:56;9.56;91.18
63051;SHT30;49136;47.416;19.402;2023-01-08T15:24:33;9.64;91.04
63051;SHT30;49136;47.416;19.402;2023-01-08T15:27:00;9.67;90.76
63051;SHT30;49136;47.416;19.402;2023-01-08T15:32:38;9.73;90.70
63051;SHT30;49136;47.416;19.402;2023-01-08T15:35:15;9.72;90.83
63051;SHT30;49136;47.416;19.402;2023-01-08T15:37:59;9.67;90.94
63051;SHT30;49136;47.416;19.402;2023-01-08T15:40:25;9.63;91.47
63051;SHT30;49136;47.416;19.402;2023-01-08T15:42:50;9.53;91.88
63051;SHT30;49136;47.416;19.402;2023-01-08T15:45:34;9.53;91.74
63051;SHT30;49136;47.416;19.402;2023-01-08T15:48:03;9.46;91.94
63051;SHT30;49136;47.416;19.402;2023-01-08T15:50:29;9.43;92.05
63051;SHT30;49136;47.416;19.402;2023-01-08T15:53:08;9.45;92.35
63051;SHT30;49136;47.416;19.402;2023-01-08T15:55:34;9.39;92.58
63051;SHT30;49136;47.416;19.402;2023-01-08T16:01:08;9.32;93.20
63051;SHT30;49136;47.416;19.402;2023-01-08T16:03:34;9.35;93.09
63051;SHT30;49136;47.416;19.402;2023-01-08T16:05:59;9.36;93.14
63051;SHT30;49136;47.416;19.402;2023-01-08T16:08:28;9.40;92.94
63051;SHT30;49136;47.416;19.402;2023-01-08T16:10:53;9.46;92.77
63051;SHT30;49136;47.416;19.402;2023-01-08T16:13:19;9.46;92.97
63051;SHT30;49136;47.416;19.402;2023-01-08T16:15:45;9.42;93.05
63051;SHT30;49136;47.416;19.402;2023-01-08T16:18:15;9.46;92.93
63051;SHT30;49136;47.416;19.402;2023-01-08T16:20:41;9.39;93.29
63051;SHT30;49136;47.416;19.402;2023-01-08T16:23:06;9.39;93.29
63051;SHT30;49136;47.416;19.402;2023-01-08T16:25:32;9.32;93.63
63051;SHT30;49136;47.416;19.402;2023-01-08T16:28:08;9.32;93.96
63051;SHT30;49136;47.416;19.402;2023-01-08T16:30:34;9.28;94.07
63051;SHT30;49136;47.416;19.402;2023-01-08T16:33:00;9.31;93.87
63051;SHT30;49136;47.416;19.402;2023-01-08T16:35:26;9.32;93.86
63051;SHT30;49136;47.416;19.402;2023-01-08T16:37:54;9.31;93.89
63051;SHT30;49136;47.416;19.402;2023-01-08T16:40:20;9.27;94.28
63051;SHT30;49136;47.416;19.402;2023-01-08T16:42:46;9.20;94.54
63051;SHT30;49136;47.416;19.402;2023-01-08T16:45:11;9.24;94.29
63051;SHT30;49136;47.416;19.402;2023-01-08T16:47:56;9.18;94.45
63051;SHT30;49136;47.416;19.402;2023-01-08T16:50:22;9.18;94.41
63051;SHT30;49136;47.416;19.402;2023-01-08T16:52:47;9.24;94.28
63051;SHT30;49136;47.416;19.402;2023-01-08T16:55:15;9.21;94.57
63051;SHT30;49136;47.416;19.402;2023-01-08T16:57:48;9.14;94.79
63051;SHT30;49136;47.416;19.402;2023-01-08T17:00:14;9.21;94.66
63051;SHT30;49136;47.416;19.402;2023-01-08T17:02:40;9.21;94.49
63051;SHT30;49136;47.416;19.402;2023-01-08T17:05:06;9.25;94.46
63051;SHT30;49136;47.416;19.402;2023-01-08T17:08:08;9.11;95.06
63051;SHT30;49136;47.416;19.402;2023-01-08T17:10:37;9.18;94.70
63051;SHT30;49136;47.416;19.402;2023-01-08T17:13:04;9.18;94.73
63051;SHT30;49136;47.416;19.402;2023-01-08T17:15:29;9.14;94.80
63051;SHT30;49136;47.416;19.402;2023-01-08T17:17:55;9.17;94.54
63051;SHT30;49136;47.416;19.402;2023-01-08T17:20:35;9.29;94.04
63051;SHT30;49136;47.416;19.402;2023-01-08T17:23:01;9.24;94.02
63051;SHT30;49136;47.416;19.402;2023-01-08T17:25:26;9.40;93.02
63051;SHT30;49136;47.416;19.402;2023-01-08T17:28:08;9.57;92.41
63051;SHT30;49136;47.416;19.402;2023-01-08T17:30:34;9.56;92.16
63051;SHT30;49136;47.416;19.402;2023-01-08T17:32:59;9.60;91.90
63051;SHT30;49136;47.416;19.402;2023-01-08T17:35:25;9.60;92.01
63051;SHT30;49136;47.416;19.402;2023-01-08T17:38:12;9.66;91.77
63051;SHT30;49136;47.416;19.402;2023-01-08T17:40:38;9.62;91.82
63051;SHT30;49136;47.416;19.402;2023-01-08T17:43:03;9.56;91.94
63051;SHT30;49136;47.416;19.402;2023-01-08T17:45:30;9.62;91.53
63051;SHT30;49136;47.416;19.402;2023-01-08T17:48:00;9.59;91.61
63051;SHT30;49136;47.416;19.402;2023-01-08T17:50:25;9.66;90.98
63051;SHT30;49136;47.416;19.402;2023-01-08T17:52:51;9.70;91.02
63051;SHT30;49136;47.416;19.402;2023-01-08T17:55:17;9.69;90.80
63051;SHT30;49136;47.416;19.402;2023-01-08T17:58:19;9.66;90.80